Frisco, Colorado
Current Conditions -  °F | °C
As of 2:35 AM on Thursday 18 Dec 2014 (Local Time) from KCCU Reporting Station
Light Snow Light Snow  
Wind Chill:   Ceiling: 400
Heat Index: 19°   Visibility: 2.5mi
Dew Point: 14°   Wind: 15mph
Humidity: 80%   Direction: 260°W
Pressure: 29.99"   Gusts: NA
Location:  39.57°N, 106.1°W
Report Text: KCCU 180935Z AUTO 26013KT 2 1/2SM -SN OVC004 M07/M10 A2999 RMK AO2
Loading
Personal Weather Stations






























Interactive Weather Map New forecast layout! Learn more

10-Day Weather Forecast

Advertisements
Track Severe Weather on mobile